Time;durP1;ratioP1;P1;durP2;ratioP2;P2;SDS_P1;SDS_P2;PMS_P1;PMS_P2;Temp;Humidity;BMP_temperature;BMP_pressure;BME280_temperature;BME280_humidity;BME280_pressure;Samples;Min_cycle;Max_cycle;Signal;HPM_P1;HPM_P2
2022/01/04 00:01:42;;;;;;;0.20;0.20;;;;;;;9.38;24.23;60892.56;4872467;28;20040;-87
2022/01/04 00:04:21;;;;;;;0.65;0.30;;;;;;;9.33;24.23;60892.56;4853495;28;20045;-86
2022/01/04 00:07:00;;;;;;;0.20;0.20;;;;;;;9.34;24.23;60892.56;4860785;28;20462;-86
2022/01/04 00:09:41;;;;;;;0.47;0.30;;;;;;;187.52;24.23;60892.56;4847824;28;20123;-88
2022/01/04 00:15:18;;;;;;;0.20;0.20;;;;;;;9.34;24.23;60892.56;4866241;28;20029;-87
2022/01/04 00:17:57;;;;;;;0.23;0.23;;;;;;;9.34;24.23;60892.56;4862572;28;20029;-87
2022/01/04 00:20:37;;;;;;;0.32;0.32;;;;;;;-145.06;24.23;60892.56;4855742;28;20108;-86
2022/01/04 00:23:18;;;;;;;0.30;0.30;;;;;;;9.34;24.23;60892.56;4852839;28;20037;-87
2022/01/04 00:25:58;;;;;;;0.22;0.20;;;;;;;9.35;24.23;60892.56;4871070;28;20029;-88
2022/01/04 00:28:37;;;;;;;0.40;0.40;;;;;;;-145.06;24.23;60892.56;4855241;28;20033;-86
2022/01/04 00:31:16;;;;;;;0.35;0.20;;;;;;;10.68;24.23;60892.56;4868554;28;20060;-87
2022/01/04 00:33:55;;;;;;;0.30;0.30;;;;;;;9.38;24.23;60892.56;4872603;28;20443;-87
2022/01/04 00:36:34;;;;;;;0.52;0.30;;;;;;;-145.06;24.23;60892.56;4853780;28;20037;-87
2022/01/04 00:39:13;;;;;;;0.15;0.15;;;;;;;-145.06;24.23;60892.56;4868251;28;20375;-88
2022/01/04 00:41:52;;;;;;;0.30;0.30;;;;;;;-145.06;24.23;60892.56;4852687;28;20201;-87
2022/01/04 00:44:31;;;;;;;0.20;0.20;;;;;;;-145.06;24.23;60892.56;4855343;28;20033;-87
2022/01/04 00:47:11;;;;;;;0.20;0.20;;;;;;;-145.06;24.23;60892.56;4872014;28;20285;-87
2022/01/04 00:49:50;;;;;;;0.35;0.28;;;;;;;-145.06;24.23;60892.56;4869445;28;20032;-87
2022/01/04 00:52:29;;;;;;;0.20;0.20;;;;;;;-145.06;24.23;60892.56;4861758;28;20033;-86
2022/01/04 00:55:08;;;;;;;0.20;0.20;;;;;;;9.28;24.23;60892.56;4854139;28;20032;-87
2022/01/04 00:57:48;;;;;;;0.20;0.20;;;;;;;-145.06;24.23;60892.56;4870781;28;20056;-87
2022/01/04 01:00:27;;;;;;;0.32;0.30;;;;;;;-145.06;24.23;60892.56;4865582;28;20037;-86
2022/01/04 01:03:07;;;;;;;0.20;0.20;;;;;;;9.28;24.23;60892.56;4849426;28;20029;-87
2022/01/04 01:05:46;;;;;;;0.30;0.20;;;;;;;-145.06;24.23;60892.56;4856522;28;20028;-86
2022/01/04 01:08:25;;;;;;;0.43;0.30;;;;;;;-145.06;24.23;60892.56;4847650;28;20029;-87
2022/01/04 01:11:06;;;;;;;0.20;0.20;;;;;;;-145.06;24.23;60892.56;4864249;28;20575;-86
2022/01/04 01:13:46;;;;;;;0.22;0.22;;;;;;;-145.06;24.23;60892.56;4858964;28;20510;-87
2022/01/04 01:16:25;;;;;;;0.30;0.30;;;;;;;-145.06;24.23;60892.56;4863234;28;20478;-88
2022/01/04 01:19:04;;;;;;;0.68;0.20;;;;;;;9.32;24.23;60892.56;4860065;28;20029;-87
2022/01/04 01:21:43;;;;;;;0.30;0.30;;;;;;;-145.06;24.23;60892.56;4856058;28;20542;-86
2022/01/04 01:24:22;;;;;;;0.27;0.27;;;;;;;-145.06;24.23;60892.56;4846708;28;20037;-87
2022/01/04 01:27:01;;;;;;;0.20;0.20;;;;;;;21.08;24.23;60892.56;4858877;28;20350;-87
2022/01/04 01:29:40;;;;;;;0.30;0.30;;;;;;;9.34;24.23;60892.56;4851935;28;20091;-88
2022/01/04 01:32:19;;;;;;;0.57;0.20;;;;;;;-145.06;24.23;60892.56;4854381;28;20271;-87
2022/01/04 01:34:58;;;;;;;0.17;0.17;;;;;;;-145.06;24.23;60892.56;4872992;28;20033;-86
2022/01/04 01:37:37;;;;;;;0.20;0.20;;;;;;;-145.06;24.23;60892.56;4874029;28;20387;-86
2022/01/04 01:40:16;;;;;;;0.30;0.30;;;;;;;187.52;24.23;60892.56;4858211;28;20028;-87
2022/01/04 01:42:55;;;;;;;0.80;0.43;;;;;;;-145.06;24.23;60892.56;4856684;28;20048;-87
2022/01/04 01:45:36;;;;;;;0.40;0.38;;;;;;;-145.06;24.23;60892.56;4868381;28;20028;-88
2022/01/04 01:48:15;;;;;;;0.20;0.20;;;;;;;9.29;24.23;60892.56;4855279;28;20113;-85
2022/01/04 01:50:54;;;;;;;0.20;0.20;;;;;;;-145.06;24.23;60892.56;4857682;28;20486;-87
2022/01/04 01:53:33;;;;;;;0.20;0.20;;;;;;;-145.06;24.23;60892.56;4855676;28;20033;-87
2022/01/04 01:56:12;;;;;;;0.20;0.20;;;;;;;-145.06;24.23;60892.56;4856560;28;20037;-87
2022/01/04 01:58:51;;;;;;;0.13;0.13;;;;;;;9.24;24.23;60892.56;4855681;28;20284;-87
2022/01/04 02:01:30;;;;;;;0.20;0.20;;;;;;;9.25;24.23;60892.56;4855767;28;20029;-86
2022/01/04 02:04:09;;;;;;;0.20;0.20;;;;;;;-145.06;24.23;60892.56;4855851;28;20482;-86
2022/01/04 02:06:50;;;;;;;0.20;0.20;;;;;;;-145.06;24.23;60892.56;4845402;28;20037;-86
2022/01/04 02:09:29;;;;;;;;;;;;;;;-145.06;24.23;60892.56;4843800;28;20115;-86
2022/01/04 02:12:09;;;;;;;;;;;;;;;-145.06;24.23;60892.56;4853758;28;19912;-87
2022/01/04 02:14:51;;;;;;;0.22;0.22;;;;;;;-145.06;24.23;60892.56;4874396;28;20362;-86
2022/01/04 02:17:30;;;;;;;0.30;0.30;;;;;;;-145.06;24.23;60892.56;4848080;28;20123;-87
2022/01/04 02:20:10;;;;;;;0.30;0.30;;;;;;;9.27;24.23;60892.56;4864756;28;20112;-87
2022/01/04 02:22:49;;;;;;;0.20;0.20;;;;;;;-145.06;24.23;60892.56;4840743;28;20272;-87
2022/01/04 02:25:28;;;;;;;;;;;;;;;-145.06;24.23;60892.56;4855167;28;20037;-86
2022/01/04 02:28:07;;;;;;;0.20;0.20;;;;;;;-145.06;24.23;60892.56;4872722;28;19912;-86
2022/01/04 02:30:48;;;;;;;0.30;0.30;;;;;;;-145.06;24.23;60892.56;4859762;28;20364;-86
2022/01/04 02:33:27;;;;;;;;;;;;;;;-145.06;24.23;60892.56;4869023;28;20033;-87
2022/01/04 02:36:06;;;;;;;0.30;0.30;;;;;;;-145.06;24.23;60892.56;4851920;28;20374;-87
2022/01/04 02:38:44;;;;;;;0.20;0.20;;;;;;;-145.06;24.23;60892.56;4868672;28;20119;-87
2022/01/04 02:41:23;;;;;;;0.47;0.30;;;;;;;-145.06;24.23;60892.56;4859704;28;20029;-87
2022/01/04 02:44:03;;;;;;;0.60;0.40;;;;;;;9.24;24.23;60892.56;4873246;28;20064;-86
2022/01/04 02:46:43;;;;;;;0.20;0.20;;;;;;;9.22;24.23;60892.56;4855649;28;20037;-86
2022/01/04 02:49:22;;;;;;;0.20;0.20;;;;;;;-145.06;24.23;60892.56;4848132;28;20033;-87
2022/01/04 02:52:01;;;;;;;0.22;0.22;;;;;;;9.24;24.23;60892.56;4845339;28;20041;-87
2022/01/04 02:54:40;;;;;;;0.25;0.25;;;;;;;9.29;24.23;60892.56;4872870;28;20451;-86
2022/01/04 02:57:19;;;;;;;0.20;0.20;;;;;;;-145.06;24.23;60892.56;4853660;28;20072;-87
2022/01/04 02:59:58;;;;;;;0.10;0.10;;;;;;;-145.06;24.23;60892.56;4844805;28;20041;-86
2022/01/04 03:02:37;;;;;;;0.22;0.22;;;;;;;-145.06;24.23;60892.56;4851866;28;20029;-87
2022/01/04 03:05:17;;;;;;;0.28;0.20;;;;;;;9.38;24.23;60892.56;4852761;28;20032;-86
2022/01/04 03:07:56;;;;;;;0.95;0.20;;;;;;;9.29;24.23;60892.56;4860128;28;20034;-86
2022/01/04 03:10:35;;;;;;;0.30;0.30;;;;;;;9.26;24.23;60892.56;4842939;28;20116;-86
2022/01/04 03:13:16;;;;;;;0.35;0.35;;;;;;;9.25;24.23;60892.56;4848228;28;20021;-86
2022/01/04 03:15:55;;;;;;;0.20;0.20;;;;;;;9.26;24.23;60892.56;4868891;28;20029;-87
2022/01/04 03:18:36;;;;;;;0.30;0.30;;;;;;;-145.06;24.23;60892.56;4852183;28;20032;-86
2022/01/04 03:21:15;;;;;;;0.20;0.20;;;;;;;-145.06;24.23;60892.56;4849772;28;20025;-87
2022/01/04 03:23:54;;;;;;;0.20;0.20;;;;;;;-145.06;24.23;60892.56;4862687;28;20064;-86
2022/01/04 03:26:35;;;;;;;0.20;0.20;;;;;;;-145.06;24.23;60892.56;4854079;28;20025;-88
2022/01/04 03:29:14;;;;;;;;;;;;;;;-145.06;24.23;60892.56;4848641;28;20034;-86
2022/01/04 03:31:55;;;;;;;0.15;0.15;;;;;;;-145.06;24.23;60892.56;4859699;28;19913;-86
2022/01/04 03:34:33;;;;;;;0.20;0.20;;;;;;;-145.06;24.23;60892.56;4853700;28;20028;-87
2022/01/04 03:37:13;;;;;;;0.40;0.30;;;;;;;-145.06;24.23;60892.56;4858526;28;20376;-87
2022/01/04 03:39:51;;;;;;;0.20;0.20;;;;;;;-145.06;24.23;60892.56;4842295;28;20029;-87
2022/01/04 03:42:31;;;;;;;0.13;0.13;;;;;;;-145.06;24.23;60892.56;4864417;28;20033;-86
2022/01/04 03:45:10;;;;;;;0.32;0.30;;;;;;;-145.06;24.23;60892.56;4861063;28;20114;-86
2022/01/04 03:47:49;;;;;;;0.27;0.27;;;;;;;-145.06;24.23;60892.56;4848221;28;20120;-85
2022/01/04 03:50:28;;;;;;;0.20;0.20;;;;;;;-145.06;24.23;60892.56;4852484;28;20041;-87
2022/01/04 03:53:07;;;;;;;0.10;0.10;;;;;;;-145.06;24.23;60892.56;4838658;28;20330;-87
2022/01/04 03:55:46;;;;;;;0.50;0.30;;;;;;;-145.06;24.23;60892.56;4845903;28;20022;-87
2022/01/04 03:58:25;;;;;;;0.20;0.20;;;;;;;-145.06;24.23;60892.56;4852851;28;20112;-87
2022/01/04 04:01:04;;;;;;;0.20;0.20;;;;;;;-145.06;24.23;60892.56;4860016;28;20033;-87
2022/01/04 04:03:43;;;;;;;0.20;0.20;;;;;;;-145.06;24.23;60892.56;4872137;28;20399;-87
2022/01/04 04:06:22;;;;;;;0.20;0.20;;;;;;;-145.06;24.23;60892.56;4847630;28;20026;-86
2022/01/04 04:09:01;;;;;;;0.28;0.28;;;;;;;-145.06;24.23;60892.56;4879525;28;20279;-86
2022/01/04 04:11:40;;;;;;;0.20;0.20;;;;;;;-145.06;24.23;60892.56;4870034;28;20032;-87
2022/01/04 04:14:19;;;;;;;0.30;0.30;;;;;;;-145.06;24.23;60892.56;4859923;28;20040;-87
2022/01/04 04:16:58;;;;;;;0.20;0.20;;;;;;;-145.06;24.23;60892.56;4864345;28;20482;-86
2022/01/04 04:19:37;;;;;;;0.22;0.22;;;;;;;-145.06;24.23;60892.56;4848013;28;20275;-86
2022/01/04 04:22:16;;;;;;;0.27;0.27;;;;;;;-145.06;24.23;60892.56;4857649;28;20025;-87
2022/01/04 04:24:55;;;;;;;0.27;0.20;;;;;;;-145.06;24.23;60892.56;4860588;28;20259;-87
2022/01/04 04:27:34;;;;;;;0.20;0.20;;;;;;;-145.06;24.23;60892.56;4857632;28;20032;-86
2022/01/04 04:30:14;;;;;;;0.40;0.40;;;;;;;-145.06;24.23;60892.56;4852490;28;20041;-86
2022/01/04 04:32:53;;;;;;;0.20;0.20;;;;;;;-145.06;24.23;60892.56;4845532;28;20030;-86
2022/01/04 04:35:32;;;;;;;0.30;0.30;;;;;;;-145.06;24.23;60892.56;4855726;28;20037;-87
2022/01/04 04:38:11;;;;;;;0.40;0.22;;;;;;;-145.06;24.23;60892.56;4843632;28;20119;-87
2022/01/04 04:40:50;;;;;;;0.20;0.20;;;;;;;-145.06;24.23;60892.56;4841653;28;20371;-86
2022/01/04 04:43:29;;;;;;;0.20;0.20;;;;;;;-145.06;24.23;60892.56;4865165;28;20116;-86
2022/01/04 04:46:07;;;;;;;0.40;0.40;;;;;;;-145.06;24.23;60892.56;4849428;28;20272;-87
2022/01/04 04:48:47;;;;;;;0.23;0.23;;;;;;;-145.06;24.23;60892.56;4857200;28;20025;-87
2022/01/04 04:51:26;;;;;;;0.30;0.30;;;;;;;-145.06;24.23;60892.56;4854256;28;20784;-87
2022/01/04 04:54:05;;;;;;;0.20;0.20;;;;;;;-145.06;24.23;60892.56;4854567;28;20037;-87
2022/01/04 04:56:44;;;;;;;0.28;0.28;;;;;;;-145.06;24.23;60892.56;4856122;28;20037;-87
2022/01/04 04:59:23;;;;;;;0.20;0.20;;;;;;;-145.06;24.23;60892.56;4866774;28;20116;-86
2022/01/04 05:02:02;;;;;;;0.20;0.20;;;;;;;-145.06;24.23;60892.56;4874609;28;20038;-86
2022/01/04 05:04:41;;;;;;;0.20;0.20;;;;;;;9.05;24.23;60892.56;4864439;28;20037;-86
2022/01/04 05:07:20;;;;;;;0.20;0.20;;;;;;;-145.06;24.23;60892.56;4868045;28;20502;-86
2022/01/04 05:10:00;;;;;;;0.35;0.35;;;;;;;9.06;24.23;60892.56;4854593;28;20037;-86
2022/01/04 05:12:39;;;;;;;;;;;;;;;-145.06;24.23;60892.56;4863573;28;20069;-86
2022/01/04 05:15:18;;;;;;;0.40;0.40;;;;;;;9.04;24.23;60892.56;4848077;28;19917;-86
2022/01/04 05:17:57;;;;;;;0.80;0.70;;;;;;;-145.06;24.23;60892.56;4854400;28;20065;-87
2022/01/04 05:20:36;;;;;;;0.70;0.60;;;;;;;-145.06;24.23;60892.56;4853825;28;20041;-86
2022/01/04 05:23:15;;;;;;;0.33;0.33;;;;;;;-145.06;24.23;60892.56;4855135;28;20040;-86
2022/01/04 05:25:54;;;;;;;1.00;0.40;;;;;;;-145.06;24.23;60892.56;4853280;28;20376;-87
2022/01/04 05:28:33;;;;;;;0.90;0.60;;;;;;;-145.06;24.23;60892.56;4867806;28;20358;-87
2022/01/04 05:31:13;;;;;;;0.53;0.53;;;;;;;-145.06;24.23;60892.56;4841313;28;20120;-85
2022/01/04 05:33:51;;;;;;;0.60;0.60;;;;;;;9.10;24.23;60892.56;4848317;28;20264;-85
2022/01/04 05:36:31;;;;;;;0.50;0.40;;;;;;;-145.06;24.23;60892.56;4859982;28;20036;-87
2022/01/04 05:39:10;;;;;;;0.60;0.50;;;;;;;-145.06;24.23;60892.56;4840724;28;20041;-87
2022/01/04 05:41:49;;;;;;;0.30;0.30;;;;;;;9.02;24.23;60892.56;4844637;28;20753;-87
2022/01/04 05:44:28;;;;;;;0.50;0.33;;;;;;;9.01;24.23;60892.56;4855260;28;20033;-87
2022/01/04 05:47:07;;;;;;;0.27;0.23;;;;;;;9.02;24.23;60892.56;4858893;28;20033;-85
2022/01/04 05:49:46;;;;;;;0.40;0.30;;;;;;;9.01;24.23;60892.56;4839795;28;20046;-87
2022/01/04 05:52:26;;;;;;;0.30;0.30;;;;;;;-145.06;24.23;60892.56;4828092;28;20038;-87
2022/01/04 05:55:05;;;;;;;0.30;0.30;;;;;;;9.02;24.23;60892.56;4832763;28;20034;-85
2022/01/04 05:57:44;;;;;;;0.30;0.30;;;;;;;9.01;24.23;60892.56;4848144;28;20034;-87
2022/01/04 06:00:23;;;;;;;0.30;0.30;;;;;;;9.04;24.23;60892.56;4832936;28;20046;-86
2022/01/04 06:03:02;;;;;;;0.30;0.30;;;;;;;-145.06;24.23;60892.56;4831649;28;20109;-86
2022/01/04 06:05:41;;;;;;;0.45;0.20;;;;;;;-145.06;24.23;60892.56;4832573;28;20285;-87
2022/01/04 06:08:21;;;;;;;0.50;0.50;;;;;;;9.04;24.23;60892.56;4840551;28;20038;-87
2022/01/04 06:11:00;;;;;;;;;;;;;;;21.08;24.23;60892.56;4839937;28;20038;-86
2022/01/04 06:16:54;;;;;;;0.30;0.30;;;;;;;-145.06;24.23;60892.56;4801428;28;20034;-85
2022/01/04 06:19:33;;;;;;;0.20;0.20;;;;;;;9.01;24.23;60892.56;4827204;28;20787;-87
2022/01/04 06:22:12;;;;;;;0.30;0.30;;;;;;;-145.06;24.23;60892.56;4833779;28;20045;-86
2022/01/04 06:24:52;;;;;;;0.63;0.40;;;;;;;-145.06;24.23;60892.56;4830030;28;20077;-86
2022/01/04 06:27:31;;;;;;;0.30;0.30;;;;;;;9.02;24.23;60892.56;4831301;28;20037;-87
2022/01/04 06:30:13;;;;;;;0.50;0.50;;;;;;;9.00;24.23;60892.56;4828335;28;20033;-86
2022/01/04 06:32:52;;;;;;;0.40;0.40;;;;;;;-145.06;24.23;60892.56;4828602;28;20269;-86
2022/01/04 06:35:33;;;;;;;0.60;0.40;;;;;;;9.38;24.23;60892.56;4843483;28;20435;-87
2022/01/04 06:38:12;;;;;;;0.40;0.40;;;;;;;-145.06;24.23;60892.56;4828931;28;20034;-86
2022/01/04 06:40:51;;;;;;;0.87;0.37;;;;;;;-145.06;24.23;60892.56;4839434;28;20034;-86
2022/01/04 06:43:30;;;;;;;0.83;0.60;;;;;;;-145.06;24.23;60892.56;4823389;28;20491;-87
2022/01/04 06:46:11;;;;;;;0.50;0.50;;;;;;;9.06;24.23;60892.56;4839733;28;20038;-87
2022/01/04 06:48:50;;;;;;;0.68;0.50;;;;;;;-145.06;24.23;60892.56;4831820;28;20029;-87
2022/01/04 06:51:29;;;;;;;0.55;0.45;;;;;;;-145.06;24.23;60892.56;4819594;28;20381;-87
2022/01/04 06:54:09;;;;;;;0.40;0.40;;;;;;;-145.06;24.23;60892.56;4831527;28;20120;-87
2022/01/04 06:56:49;;;;;;;0.60;0.50;;;;;;;-145.06;24.23;60892.56;4828556;28;20022;-85
2022/01/04 06:59:28;;;;;;;;;;;;;;;187.52;24.23;60892.56;4826466;28;20042;-87
2022/01/04 07:02:08;;;;;;;0.32;0.32;;;;;;;8.99;24.23;60892.56;4822029;28;20454;-87
2022/01/04 07:04:47;;;;;;;0.70;0.30;;;;;;;8.99;24.23;60892.56;4832559;28;20042;-86
2022/01/04 07:07:26;;;;;;;0.93;0.43;;;;;;;-145.06;24.23;60892.56;4827768;28;20361;-87
2022/01/04 07:10:05;;;;;;;0.82;0.40;;;;;;;-145.06;24.23;60892.56;4827789;28;20307;-88
2022/01/04 07:12:44;;;;;;;0.40;0.40;;;;;;;9.00;24.23;60892.56;4825133;28;20038;-86
2022/01/04 07:15:23;;;;;;;0.40;0.40;;;;;;;8.98;24.23;60892.56;4847060;28;20030;-87
2022/01/04 07:18:02;;;;;;;1.17;0.50;;;;;;;-145.06;24.23;60892.56;4828751;28;20069;-87
2022/01/04 07:20:41;;;;;;;0.33;0.33;;;;;;;-145.06;24.23;60892.56;4843852;28;20050;-86
2022/01/04 07:23:23;;;;;;;0.60;0.60;;;;;;;8.97;24.23;60892.56;4830390;28;20042;-86
2022/01/04 07:26:02;;;;;;;0.70;0.55;;;;;;;-145.06;24.23;60892.56;4829603;28;20065;-86
2022/01/04 07:28:43;;;;;;;0.40;0.40;;;;;;;-145.06;24.23;60892.56;4830997;28;20046;-87
2022/01/04 07:31:23;;;;;;;0.60;0.43;;;;;;;-145.06;24.23;60892.56;4832459;28;20039;-86
2022/01/04 07:34:01;;;;;;;0.73;0.67;;;;;;;-145.06;24.23;60892.56;4833060;28;20029;-86
2022/01/04 07:36:41;;;;;;;0.55;0.50;;;;;;;8.93;24.23;60892.56;4817745;28;20038;-85
2022/01/04 07:39:20;;;;;;;0.43;0.43;;;;;;;8.98;24.23;60892.56;4830550;28;20041;-86
2022/01/04 07:42:00;;;;;;;0.70;0.60;;;;;;;-145.06;24.23;60892.56;4836074;28;20037;-86
2022/01/04 07:44:39;;;;;;;;;;;;;;;-145.06;24.23;60892.56;4833207;28;20041;-86
2022/01/04 07:47:18;;;;;;;0.50;0.50;;;;;;;-145.06;24.23;60892.56;4837343;28;19960;-85
2022/01/04 07:49:57;;;;;;;0.43;0.43;;;;;;;-145.06;24.23;60892.56;4827926;28;20589;-87
2022/01/04 07:52:37;;;;;;;0.45;0.45;;;;;;;-145.06;24.23;60892.56;4825555;28;20561;-86
2022/01/04 07:55:16;;;;;;;0.50;0.50;;;;;;;-145.06;24.23;60892.56;4831580;28;20433;-86
2022/01/04 07:57:55;;;;;;;0.68;0.50;;;;;;;-145.06;24.23;60892.56;4846824;28;20038;-86
2022/01/04 08:00:34;;;;;;;1.30;0.70;;;;;;;-145.06;24.23;60892.56;4846391;28;20117;-86
2022/01/04 08:03:13;;;;;;;0.77;0.60;;;;;;;8.98;24.23;60892.56;4833282;28;20273;-86
2022/01/04 08:05:52;;;;;;;0.60;0.60;;;;;;;-145.06;24.23;60892.56;4848639;28;20026;-87
2022/01/04 08:08:31;;;;;;;2.13;0.50;;;;;;;8.94;24.23;60892.56;4846432;28;20045;-86
2022/01/04 08:11:10;;;;;;;0.50;0.50;;;;;;;-145.06;24.23;60892.56;4835177;28;20037;-86
2022/01/04 08:13:49;;;;;;;0.60;0.40;;;;;;;8.92;24.23;60892.56;4836169;28;20273;-85
2022/01/04 08:16:28;;;;;;;0.73;0.60;;;;;;;8.93;24.23;60892.56;4846480;28;20475;-86
2022/01/04 08:19:07;;;;;;;0.50;0.50;;;;;;;8.98;24.23;60892.56;4831755;28;20033;-86
2022/01/04 08:21:46;;;;;;;1.13;0.63;;;;;;;-145.06;24.23;60892.56;4847263;28;20041;-87
2022/01/04 08:24:25;;;;;;;0.40;0.40;;;;;;;-145.06;24.23;60892.56;4834929;28;20041;-86
2022/01/04 08:27:04;;;;;;;0.68;0.52;;;;;;;-145.06;24.23;60892.56;4837699;28;20032;-86
2022/01/04 08:29:43;;;;;;;0.50;0.40;;;;;;;-145.06;24.23;60892.56;4826278;28;20026;-87
2022/01/04 08:32:22;;;;;;;0.53;0.40;;;;;;;-145.06;24.23;60892.56;4846580;28;20492;-87
2022/01/04 08:35:02;;;;;;;0.43;0.40;;;;;;;-145.06;24.23;60892.56;4842779;28;20034;-87
2022/01/04 08:37:41;;;;;;;0.30;0.22;;;;;;;8.93;24.23;60892.56;4831259;28;20113;-86
2022/01/04 08:40:20;;;;;;;0.30;0.30;;;;;;;8.98;24.23;60892.56;4830771;28;20033;-87
2022/01/04 08:42:59;;;;;;;0.30;0.30;;;;;;;9.38;24.23;60892.56;4827912;28;20038;-86
2022/01/04 08:45:38;;;;;;;0.30;0.30;;;;;;;-145.06;24.23;60892.56;4842421;28;20494;-87
2022/01/04 08:48:17;;;;;;;0.40;0.40;;;;;;;-145.06;24.23;60892.56;4840729;28;20045;-86
2022/01/04 08:50:56;;;;;;;0.30;0.30;;;;;;;-145.06;24.23;60892.56;4825434;28;20026;-86
2022/01/04 08:53:35;;;;;;;0.43;0.40;;;;;;;-145.06;24.23;60892.56;4833757;28;20344;-87
2022/01/04 08:56:18;;;;;;;0.40;0.40;;;;;;;-145.06;24.23;60892.56;4830366;28;20033;-86
2022/01/04 08:58:57;;;;;;;0.47;0.40;;;;;;;-145.06;24.23;60892.56;4825486;28;20038;-86
2022/01/04 09:01:37;;;;;;;0.38;0.30;;;;;;;-145.06;24.23;60892.56;4824829;28;20658;-86
2022/01/04 09:04:16;;;;;;;0.32;0.20;;;;;;;9.06;24.23;60892.56;4821400;28;20109;-86
2022/01/04 09:06:55;;;;;;;0.30;0.30;;;;;;;-145.06;24.23;60892.56;4826227;28;20029;-85
2022/01/04 09:09:34;;;;;;;0.50;0.38;;;;;;;-145.06;24.23;60892.56;4823753;28;20038;-86
2022/01/04 09:12:14;;;;;;;1.30;0.40;;;;;;;-145.06;24.23;60892.56;4825563;28;20471;-86
2022/01/04 09:20:30;;;;;;;0.47;0.40;;;;;;;-145.06;24.23;60892.56;4821380;28;20261;-87
2022/01/04 09:23:09;;;;;;;0.60;0.40;;;;;;;8.79;24.23;60892.56;4826642;28;20053;-87
2022/01/04 09:25:49;;;;;;;0.30;0.30;;;;;;;-145.06;24.23;60892.56;4826070;28;20030;-86
2022/01/04 09:28:28;;;;;;;0.73;0.30;;;;;;;9.06;24.23;60892.56;4827521;28;20033;-86
2022/01/04 09:31:08;;;;;;;0.40;0.40;;;;;;;8.77;24.23;60892.56;4822406;28;20026;-87
2022/01/04 09:33:47;;;;;;;0.20;0.20;;;;;;;-145.06;24.23;60892.56;4826353;28;20042;-86
2022/01/04 09:36:33;;;;;;;0.60;0.40;;;;;;;9.38;24.23;60892.56;4820358;28;20061;-86
2022/01/04 09:39:18;;;;;;;0.45;0.40;;;;;;;-145.06;24.23;60892.56;4842627;28;20038;-86
2022/01/04 09:41:59;;;;;;;0.20;0.20;;;;;;;-145.06;24.23;60892.56;4833166;28;20038;-87
2022/01/04 09:44:38;;;;;;;0.50;0.40;;;;;;;8.82;24.23;60892.56;4844370;28;20037;-87
2022/01/04 09:47:17;;;;;;;0.93;0.40;;;;;;;-145.06;24.23;60892.56;4835773;28;20034;-87
2022/01/04 09:49:58;;;;;;;0.55;0.45;;;;;;;9.38;24.23;60892.56;4829364;28;20034;-87
2022/01/04 09:52:42;;;;;;;0.70;0.40;;;;;;;-145.06;24.23;60892.56;4827907;28;20029;-88
2022/01/04 09:55:21;;;;;;;0.20;0.20;;;;;;;8.77;24.23;60892.56;4837881;28;20042;-86
2022/01/04 09:58:01;;;;;;;0.35;0.25;;;;;;;-145.06;24.23;60892.56;4832382;28;20026;-87
2022/01/04 10:00:40;;;;;;;;;;;;;;;-145.06;24.23;60892.56;4836919;28;20037;-86
2022/01/04 10:03:22;;;;;;;0.30;0.30;;;;;;;-145.06;24.23;60892.56;4839363;28;20244;-87
2022/01/04 10:06:15;;;;;;;0.43;0.40;;;;;;;-145.06;24.23;60892.56;4839804;28;20042;-87
2022/01/04 10:09:00;;;;;;;0.20;0.20;;;;;;;-145.06;24.23;60892.56;4829588;28;20030;-86
2022/01/04 10:11:43;;;;;;;0.43;0.30;;;;;;;-145.06;24.23;60892.56;4835055;28;20037;-87
2022/01/04 10:14:31;;;;;;;0.40;0.40;;;;;;;-145.06;24.23;60892.56;4831621;28;20491;-86
2022/01/04 10:17:15;;;;;;;0.30;0.30;;;;;;;-145.06;24.23;60892.56;4830746;28;20038;-86
2022/01/04 10:19:57;;;;;;;0.35;0.35;;;;;;;-145.06;24.23;60892.56;4825115;28;20844;-86
2022/01/04 10:22:36;;;;;;;0.57;0.40;;;;;;;-145.06;24.23;60892.56;4832747;28;20038;-86
2022/01/04 10:25:16;;;;;;;0.35;0.35;;;;;;;-145.06;24.23;60892.56;4840062;28;20041;-87
2022/01/04 10:27:55;;;;;;;0.77;0.50;;;;;;;-145.06;24.23;60892.56;4827115;28;20026;-87
2022/01/04 10:30:38;;;;;;;2.08;0.70;;;;;;;-145.06;24.23;60892.56;4830791;28;20034;-85
2022/01/04 10:33:21;;;;;;;0.40;0.40;;;;;;;-145.06;24.23;60892.56;4833718;28;20046;-87
2022/01/04 10:36:08;;;;;;;0.40;0.40;;;;;;;-145.06;24.23;60892.56;4823366;28;20574;-86
2022/01/04 10:38:48;;;;;;;0.43;0.43;;;;;;;-145.06;24.23;60892.56;4826584;28;20116;-86
2022/01/04 10:41:27;;;;;;;;;;;;;;;-145.06;24.23;60892.56;4827303;28;20033;-87
2022/01/04 10:44:10;;;;;;;1.03;0.57;;;;;;;-145.06;24.23;60892.56;4828012;28;19917;-87
2022/01/04 10:46:54;;;;;;;0.30;0.30;;;;;;;-145.06;24.23;60892.56;4840575;28;20034;-86
2022/01/04 10:49:40;;;;;;;0.40;0.40;;;;;;;-145.06;24.23;60892.56;4840898;28;20034;-86
2022/01/04 10:52:30;;;;;;;0.45;0.40;;;;;;;-145.06;24.23;60892.56;4825705;28;20449;-86
2022/01/04 10:55:13;;;;;;;1.48;0.52;;;;;;;-145.06;24.23;60892.56;4822803;28;20027;-86
2022/01/04 10:57:53;;;;;;;0.47;0.47;;;;;;;-145.06;24.23;60892.56;4826364;28;20033;-86
2022/01/04 11:00:32;;;;;;;0.90;0.60;;;;;;;-145.06;24.23;60892.56;4830303;28;20037;-86
2022/01/04 11:03:22;;;;;;;1.27;0.77;;;;;;;-145.06;24.23;60892.56;4845133;28;20045;-87
2022/01/04 11:06:05;;;;;;;1.13;0.90;;;;;;;-145.06;24.23;60892.56;4828278;28;20031;-88
2022/01/04 11:08:44;;;;;;;0.43;0.43;;;;;;;-145.06;24.23;60892.56;4844097;28;20108;-87
2022/01/04 11:11:24;;;;;;;0.73;0.60;;;;;;;-145.06;24.23;60892.56;4846628;28;20532;-87
2022/01/04 11:14:04;;;;;;;1.00;0.50;;;;;;;8.72;24.23;60892.56;4847937;28;20385;-86
2022/01/04 11:16:43;;;;;;;;;;;;;;;-145.06;24.23;60892.56;4834175;28;20499;-86
2022/01/04 11:19:22;;;;;;;0.80;0.60;;;;;;;-145.06;24.23;60892.56;4841126;28;19918;-86
2022/01/04 11:22:04;;;;;;;1.38;0.65;;;;;;;-145.06;24.23;60892.56;4825561;28;20046;-85
2022/01/04 11:24:46;;;;;;;0.60;0.60;;;;;;;-145.06;24.23;60892.56;4831474;28;20487;-87
2022/01/04 11:27:25;;;;;;;0.95;0.50;;;;;;;8.73;24.23;60892.56;4847846;28;20027;-85
2022/01/04 11:30:13;;;;;;;0.40;0.40;;;;;;;-145.06;24.23;60892.56;4830659;28;20034;-86
2022/01/04 11:32:59;;;;;;;0.50;0.50;;;;;;;8.82;24.23;60892.56;4832437;28;20038;-87
2022/01/04 11:35:38;;;;;;;0.52;0.52;;;;;;;-145.06;24.23;60892.56;4851136;28;20384;-86
2022/01/04 11:38:34;;;;;;;0.65;0.50;;;;;;;-145.06;24.23;60892.56;4834840;28;20065;-87
2022/01/04 11:41:39;;;;;;;0.55;0.55;;;;;;;-145.06;24.23;60892.56;4830284;28;20061;-86
2022/01/04 11:44:20;;;;;;;0.80;0.70;;;;;;;8.79;24.23;60892.56;4833691;28;20488;-86
2022/01/04 11:47:06;;;;;;;0.60;0.60;;;;;;;-145.06;24.23;60892.56;4854139;28;20064;-87
2022/01/04 11:50:10;;;;;;;0.80;0.73;;;;;;;-145.06;24.23;60892.56;4828429;28;20034;-87
2022/01/04 11:52:59;;;;;;;0.60;0.60;;;;;;;-145.06;24.23;60892.56;4832388;28;20041;-88
2022/01/04 11:55:48;;;;;;;1.87;1.10;;;;;;;-145.06;24.23;60892.56;4835979;28;20030;-87
2022/01/04 11:58:50;;;;;;;1.40;1.08;;;;;;;-145.06;24.23;60892.56;4830507;28;20264;-87
2022/01/04 12:01:30;;;;;;;1.00;0.90;;;;;;;-145.06;24.23;60892.56;4831290;28;20049;-87
2022/01/04 12:04:08;;;;;;;2.00;1.30;;;;;;;-145.06;24.23;60892.56;4834588;28;20037;-86
2022/01/04 12:06:48;;;;;;;1.60;1.15;;;;;;;-145.06;24.23;60892.56;4825240;28;20112;-85
2022/01/04 12:09:29;;;;;;;1.73;1.42;;;;;;;8.79;24.23;60892.56;4831230;28;20038;-86
2022/01/04 12:12:08;;;;;;;3.95;2.33;;;;;;;-145.06;24.23;60892.56;4844258;28;20034;-85
2022/01/04 12:14:47;;;;;;;5.35;2.72;;;;;;;-145.06;24.23;60892.56;4842707;28;20041;-86
2022/01/04 12:17:33;;;;;;;4.53;2.77;;;;;;;-145.06;24.23;60892.56;4837613;28;20136;-86
2022/01/04 12:20:41;;;;;;;2.25;1.85;;;;;;;-145.06;24.23;60892.56;4833716;28;20357;-86
2022/01/04 12:23:26;;;;;;;1.80;1.25;;;;;;;-145.06;24.23;60892.56;4833364;28;20037;-86
2022/01/04 12:26:05;;;;;;;1.75;1.20;;;;;;;-145.06;24.23;60892.56;4829773;28;20026;-86
2022/01/04 12:29:06;;;;;;;1.30;1.20;;;;;;;-145.06;24.23;60892.56;4833523;28;20491;-87
2022/01/04 12:31:47;;;;;;;1.60;1.13;;;;;;;-145.06;24.23;60892.56;4849468;28;20400;-86
2022/01/04 12:34:37;;;;;;;3.55;1.67;;;;;;;-145.06;24.23;60892.56;4839032;28;20144;-84
2022/01/04 12:37:18;;;;;;;2.75;1.40;;;;;;;-145.06;24.23;60892.56;4839115;28;20026;-85
2022/01/04 12:39:57;;;;;;;1.73;1.33;;;;;;;-145.06;24.23;60892.56;4834656;28;20030;-82